Time;durP1;ratioP1;P1;durP2;ratioP2;P2;SDS_P1;SDS_P2;PMS_P1;PMS_P2;Temp;Humidity;BMP_temperature;BMP_pressure;BME280_temperature;BME280_humidity;BME280_pressure;Samples;Min_cycle;Max_cycle;Signal;HPM_P1;HPM_P2
2023/08/16 00:01:46;;;;;;;5.15;2.00;;;;;;;23.95;55.98;101843.75;4947354;28;20063;-65
2023/08/16 00:04:12;;;;;;;4.30;2.00;;;;;;;23.95;55.66;101841.09;4946925;28;20042;-66
2023/08/16 00:06:41;;;;;;;4.97;2.00;;;;;;;23.93;55.75;101843.06;4947348;28;20396;-67
2023/08/16 00:09:07;;;;;;;3.88;1.70;;;;;;;23.94;55.98;101854.56;4947234;29;20114;-67
2023/08/16 00:11:32;;;;;;;3.70;1.90;;;;;;;23.92;56.02;101852.03;4946901;28;20150;-66
2023/08/16 00:13:57;;;;;;;4.60;1.85;;;;;;;23.94;55.83;101846.56;4946775;29;20182;-65
2023/08/16 00:16:22;;;;;;;4.78;1.90;;;;;;;23.93;56.05;101844.91;4947166;28;20476;-67
2023/08/16 00:18:48;;;;;;;4.32;1.90;;;;;;;23.93;55.87;101845.72;4945941;28;20036;-66
2023/08/16 00:21:13;;;;;;;4.80;2.00;;;;;;;23.92;55.96;101841.38;4946517;28;20046;-65
2023/08/16 00:23:38;;;;;;;3.85;1.75;;;;;;;23.93;55.72;101852.88;4946136;29;20117;-65
2023/08/16 00:26:04;;;;;;;4.57;2.10;;;;;;;23.93;55.56;101847.56;4946382;29;20495;-66
2023/08/16 00:28:29;;;;;;;3.95;2.10;;;;;;;23.93;55.85;101850.22;4947307;28;20495;-64
2023/08/16 00:30:55;;;;;;;3.92;1.95;;;;;;;23.92;55.50;101844.03;4946781;28;20510;-66
2023/08/16 00:33:21;;;;;;;4.32;1.90;;;;;;;23.90;55.42;101846.00;4945754;29;20039;-65
2023/08/16 00:35:46;;;;;;;4.53;1.92;;;;;;;23.89;55.38;101844.31;4945843;28;20118;-66
2023/08/16 00:38:12;;;;;;;5.60;2.20;;;;;;;23.89;55.82;101850.50;4945843;29;20038;-68
2023/08/16 00:40:37;;;;;;;4.65;1.98;;;;;;;23.91;55.60;101847.69;4946397;28;20074;-66
2023/08/16 00:43:03;;;;;;;3.65;1.92;;;;;;;23.91;55.60;101858.34;4945391;29;20043;-68
2023/08/16 00:45:29;;;;;;;5.82;2.20;;;;;;;23.90;55.40;101861.97;4947435;29;20047;-67
2023/08/16 00:47:54;;;;;;;4.43;1.75;;;;;;;23.88;55.94;101856.78;4946919;29;20424;-67
2023/08/16 00:50:23;;;;;;;3.78;2.00;;;;;;;23.89;55.33;101862.94;4945447;28;20114;-65
2023/08/16 00:52:49;;;;;;;5.95;2.08;;;;;;;23.88;55.61;101869.28;4947224;29;20073;-65
2023/08/16 00:55:15;;;;;;;4.32;1.70;;;;;;;23.89;55.49;101865.63;4947033;28;20500;-66
2023/08/16 00:57:41;;;;;;;3.88;1.80;;;;;;;23.89;55.67;101868.28;4946230;28;20055;-65
2023/08/16 01:00:07;;;;;;;4.07;1.92;;;;;;;23.88;55.69;101875.44;4946184;29;20035;-67
2023/08/16 01:02:32;;;;;;;3.50;1.92;;;;;;;23.87;55.31;101867.59;4946624;28;20130;-66
2023/08/16 01:04:58;;;;;;;5.05;1.70;;;;;;;23.87;55.51;101870.25;4944970;28;20135;-66
2023/08/16 01:07:23;;;;;;;4.13;1.85;;;;;;;23.87;55.74;101871.06;4947065;29;20341;-65
2023/08/16 01:09:48;;;;;;;3.78;1.70;;;;;;;23.88;55.72;101871.94;4947242;28;20028;-66
2023/08/16 01:12:30;;;;;;;4.60;1.88;;;;;;;23.87;55.62;101872.91;4944446;29;20031;-65
2023/08/16 01:15:06;;;;;;;3.97;1.88;;;;;;;23.86;55.14;101880.06;4946363;29;20047;-67
2023/08/16 01:17:32;;;;;;;3.40;1.80;;;;;;;23.88;55.23;101871.94;4947436;29;20805;-64
2023/08/16 01:19:59;;;;;;;3.63;1.70;;;;;;;23.87;55.49;101875.56;4946895;29;20036;-66
2023/08/16 01:22:47;;;;;;;3.05;1.60;;;;;;;23.86;55.66;101882.72;4944399;29;20395;-67
2023/08/16 01:25:39;;;;;;;3.70;1.85;;;;;;;23.86;55.76;101884.53;4945490;29;20469;-66
2023/08/16 01:28:05;;;;;;;5.28;1.75;;;;;;;23.86;55.66;101888.03;4946045;28;20035;-65
2023/08/16 01:30:31;;;;;;;3.83;1.90;;;;;;;23.87;55.38;101895.03;4946113;28;20077;-66
2023/08/16 01:33:05;;;;;;;5.53;2.13;;;;;;;23.84;55.40;101897.13;4949501;28;20423;-66
2023/08/16 01:35:32;;;;;;;3.38;1.85;;;;;;;23.85;55.22;101889.00;4948371;29;20054;-64
2023/08/16 01:37:57;;;;;;;4.38;1.92;;;;;;;23.85;55.43;101897.00;4951170;29;20166;-68
2023/08/16 01:40:23;;;;;;;4.72;2.03;;;;;;;23.85;55.32;101894.34;4949765;29;20102;-66
2023/08/16 01:42:49;;;;;;;3.35;1.80;;;;;;;23.85;55.64;101899.66;4950582;29;20039;-64
2023/08/16 01:45:17;;;;;;;3.78;1.92;;;;;;;23.82;55.76;101889.25;4949854;28;20268;-65
2023/08/16 01:47:45;;;;;;;3.33;1.65;;;;;;;23.84;55.61;101883.81;4950341;29;20031;-66
2023/08/16 01:50:10;;;;;;;4.50;1.90;;;;;;;23.82;55.48;101883.94;4950490;29;20035;-65
2023/08/16 01:52:36;;;;;;;4.22;1.90;;;;;;;23.84;55.70;101892.63;4949665;29;20038;-66
2023/08/16 01:55:02;;;;;;;5.80;1.90;;;;;;;23.83;55.49;101883.00;4949158;28;20046;-65
2023/08/16 01:57:28;;;;;;;3.55;1.92;;;;;;;23.83;55.29;101890.09;4948770;29;20396;-65
2023/08/16 01:59:53;;;;;;;4.28;2.00;;;;;;;23.82;55.39;101885.75;4949124;29;20031;-67
2023/08/16 02:02:18;;;;;;;4.10;2.08;;;;;;;23.85;55.45;101893.50;4949317;28;20034;-64
2023/08/16 02:04:44;;;;;;;4.80;1.85;;;;;;;23.84;55.74;101891.81;4949735;29;20031;-65
2023/08/16 02:07:09;;;;;;;3.10;1.47;;;;;;;23.84;55.74;101886.50;4949255;28;20440;-66
2023/08/16 02:09:34;;;;;;;3.83;1.98;;;;;;;23.84;55.34;101897.13;4951073;29;20284;-66
2023/08/16 02:12:00;;;;;;;4.57;1.97;;;;;;;23.83;55.32;101890.97;4950455;28;20031;-65
2023/08/16 02:14:25;;;;;;;3.65;1.90;;;;;;;23.82;55.66;101899.91;4949946;28;20739;-66
2023/08/16 02:16:50;;;;;;;4.38;1.77;;;;;;;23.83;55.52;101898.06;4949834;29;20535;-68
2023/08/16 02:19:16;;;;;;;4.90;2.10;;;;;;;23.82;55.55;101905.22;4948861;29;20039;-66
2023/08/16 02:21:41;;;;;;;3.88;1.80;;;;;;;23.83;55.61;101898.06;4948403;28;20039;-67
2023/08/16 02:24:07;;;;;;;5.32;1.90;;;;;;;23.82;55.10;101904.41;4949984;29;20058;-66
2023/08/16 02:26:32;;;;;;;3.95;1.90;;;;;;;23.81;55.55;101903.53;4950220;28;20035;-68
2023/08/16 02:28:58;;;;;;;5.50;2.35;;;;;;;23.82;55.49;101905.22;4949775;29;20538;-67
2023/08/16 02:31:23;;;;;;;4.00;2.20;;;;;;;23.80;55.18;101901.00;4949323;28;20094;-67
2023/08/16 02:33:49;;;;;;;5.65;2.28;;;;;;;23.81;55.15;101900.03;4947470;28;20042;-67
2023/08/16 02:36:14;;;;;;;3.30;1.80;;;;;;;23.82;55.09;101901.72;4949489;28;20043;-67
2023/08/16 02:38:39;;;;;;;3.10;1.70;;;;;;;23.80;55.17;101895.69;4948604;28;20277;-65
2023/08/16 02:41:04;;;;;;;3.75;1.90;;;;;;;23.81;55.09;101897.38;4948392;29;20031;-64
2023/08/16 02:43:30;;;;;;;3.95;2.17;;;;;;;23.80;55.29;101887.69;4948112;28;20324;-67
2023/08/16 02:45:55;;;;;;;4.10;1.90;;;;;;;23.79;55.56;101880.72;4948758;29;20062;-66
2023/08/16 02:48:20;;;;;;;5.80;2.05;;;;;;;23.79;55.03;101875.38;4948233;28;20063;-65
2023/08/16 02:50:47;;;;;;;4.55;1.90;;;;;;;23.78;55.11;101876.34;4948440;29;20031;-67
2023/08/16 02:53:13;;;;;;;4.07;2.00;;;;;;;23.79;55.11;101880.72;4947428;29;20039;-65
2023/08/16 02:55:41;;;;;;;4.28;2.00;;;;;;;23.76;55.50;101889.81;4948523;28;20038;-65
2023/08/16 02:58:06;;;;;;;4.30;2.20;;;;;;;23.77;55.50;101883.50;4948808;28;20140;-68
2023/08/16 03:00:32;;;;;;;3.72;1.90;;;;;;;23.79;55.05;101886.03;4948559;28;20031;-67
2023/08/16 03:02:57;;;;;;;4.38;1.90;;;;;;;23.78;55.05;101892.31;4947986;28;20044;-66
2023/08/16 03:05:22;;;;;;;5.35;2.13;;;;;;;23.78;55.32;101889.66;4948237;28;20035;-65
2023/08/16 03:07:48;;;;;;;5.22;2.28;;;;;;;23.77;54.95;101893.31;4947571;28;20164;-66
2023/08/16 03:10:13;;;;;;;4.03;1.95;;;;;;;23.76;55.33;101892.47;4946796;28;20035;-66
2023/08/16 03:12:38;;;;;;;4.55;2.50;;;;;;;23.76;55.36;101892.47;4947858;28;20404;-67
2023/08/16 03:15:04;;;;;;;4.87;2.30;;;;;;;23.75;55.02;101898.78;4947427;28;20071;-64
2023/08/16 03:17:29;;;;;;;3.80;2.10;;;;;;;23.76;54.91;101892.47;4946875;28;20757;-65
2023/08/16 03:19:55;;;;;;;4.20;2.20;;;;;;;23.74;55.25;101902.41;4947715;29;20118;-67
2023/08/16 03:22:20;;;;;;;4.30;2.00;;;;;;;23.77;55.27;101898.66;4947773;28;20381;-64
2023/08/16 03:24:46;;;;;;;4.18;2.00;;;;;;;23.74;55.01;101894.44;4947764;29;20032;-66
2023/08/16 03:27:12;;;;;;;5.05;1.98;;;;;;;23.75;54.94;101885.47;4948137;28;20503;-65
2023/08/16 03:29:38;;;;;;;3.70;2.03;;;;;;;23.74;55.18;101889.09;4946753;29;20059;-67
2023/08/16 03:32:03;;;;;;;5.18;2.10;;;;;;;23.75;55.17;101882.81;4947426;28;20119;-66
2023/08/16 03:34:30;;;;;;;4.07;2.20;;;;;;;23.75;54.91;101881.94;4947870;28;20031;-64
2023/08/16 03:36:55;;;;;;;4.65;2.53;;;;;;;23.74;54.81;101889.09;4946793;28;20034;-66
2023/08/16 03:39:21;;;;;;;6.07;1.98;;;;;;;23.72;55.26;101899.88;4948123;28;20035;-65
2023/08/16 03:41:46;;;;;;;4.57;2.20;;;;;;;23.75;55.02;101908.56;4947418;28;20039;-65
2023/08/16 03:44:11;;;;;;;4.22;2.08;;;;;;;23.75;55.18;101901.44;4947520;28;20340;-65
2023/08/16 03:46:37;;;;;;;4.22;2.00;;;;;;;23.74;54.71;101907.72;4945657;28;20057;-65
2023/08/16 03:49:03;;;;;;;4.50;2.13;;;;;;;23.74;54.63;101905.06;4946657;29;20042;-64
2023/08/16 03:51:28;;;;;;;3.60;1.85;;;;;;;23.73;54.60;101906.03;4947271;29;20085;-65
2023/08/16 03:53:53;;;;;;;3.65;1.98;;;;;;;23.73;54.64;101911.34;4947345;28;20024;-65
2023/08/16 03:56:19;;;;;;;4.82;2.05;;;;;;;23.72;55.04;101915.03;4947690;29;20105;-66
2023/08/16 03:58:44;;;;;;;4.13;2.05;;;;;;;23.73;54.75;101909.56;4947952;29;20031;-65
2023/08/16 04:01:09;;;;;;;4.75;2.10;;;;;;;23.73;55.09;101916.69;4948213;28;20050;-64
2023/08/16 04:03:35;;;;;;;3.63;2.08;;;;;;;23.73;54.77;101914.03;4946932;29;20035;-67
2023/08/16 04:06:00;;;;;;;4.38;2.30;;;;;;;23.72;54.64;101915.84;4946706;28;20041;-65
2023/08/16 04:08:25;;;;;;;4.57;2.00;;;;;;;23.72;54.68;101915.03;4947528;28;20075;-67
2023/08/16 04:10:50;;;;;;;4.93;2.17;;;;;;;23.71;55.06;101914.16;4947493;28;20435;-63
2023/08/16 04:13:16;;;;;;;4.03;2.10;;;;;;;23.71;54.98;101916.00;4946859;28;20035;-66
2023/08/16 04:15:41;;;;;;;4.80;2.10;;;;;;;23.72;54.95;101925.66;4945687;29;20028;-65
2023/08/16 04:18:09;;;;;;;3.85;2.10;;;;;;;23.71;54.65;101927.47;4947419;29;20035;-64
2023/08/16 04:20:35;;;;;;;4.78;2.00;;;;;;;23.71;54.71;101923.97;4946409;28;20046;-66
2023/08/16 04:23:00;;;;;;;3.97;2.10;;;;;;;23.71;54.61;101926.63;4947083;29;20413;-64
2023/08/16 04:25:25;;;;;;;4.82;2.42;;;;;;;23.70;54.52;101916.94;4947456;28;20039;-65
2023/08/16 04:27:51;;;;;;;4.95;2.13;;;;;;;23.70;55.04;101919.63;4946938;28;20039;-65
2023/08/16 04:30:16;;;;;;;4.00;2.25;;;;;;;23.69;54.65;101924.09;4946363;29;20039;-64
2023/08/16 04:32:42;;;;;;;4.43;2.20;;;;;;;23.69;54.78;101932.09;4946469;29;20034;-65
2023/08/16 04:35:08;;;;;;;3.90;2.08;;;;;;;23.70;54.85;101935.59;4945338;29;20054;-66
2023/08/16 04:37:33;;;;;;;4.80;2.25;;;;;;;23.68;55.02;101925.06;4946993;29;20039;-66
2023/08/16 04:39:59;;;;;;;4.05;1.92;;;;;;;23.68;54.78;101916.25;4946826;29;20164;-66
2023/08/16 04:42:24;;;;;;;5.03;2.67;;;;;;;23.69;54.51;101917.94;4945505;28;20118;-65
2023/08/16 04:44:49;;;;;;;3.67;2.20;;;;;;;23.69;54.47;101920.63;4946692;29;20293;-66
2023/08/16 04:47:15;;;;;;;4.68;2.30;;;;;;;23.67;54.75;101911.91;4946222;28;20042;-68
2023/08/16 04:49:40;;;;;;;5.72;2.50;;;;;;;23.68;54.54;101922.41;4946444;28;20061;-64
2023/08/16 04:52:05;;;;;;;4.13;2.10;;;;;;;23.68;54.31;101922.41;4946882;29;20063;-68
2023/08/16 04:54:31;;;;;;;4.22;2.20;;;;;;;23.67;54.38;101918.09;4945762;28;20455;-66
2023/08/16 04:56:56;;;;;;;4.72;2.30;;;;;;;23.68;54.48;101926.91;4947093;29;20643;-68
2023/08/16 04:59:21;;;;;;;4.60;2.30;;;;;;;23.67;54.81;101922.53;4945932;29;20035;-65
2023/08/16 05:01:47;;;;;;;4.40;2.60;;;;;;;23.67;54.22;101941.16;4946257;28;20038;-65
2023/08/16 05:04:13;;;;;;;5.80;2.30;;;;;;;23.67;54.47;101933.19;4946397;28;20905;-64
2023/08/16 05:06:38;;;;;;;5.13;2.15;;;;;;;23.67;54.45;101920.75;4945692;29;20616;-67
2023/08/16 05:09:04;;;;;;;5.25;2.15;;;;;;;23.68;54.24;101929.56;4947194;29;20041;-68
2023/08/16 05:11:30;;;;;;;4.20;2.08;;;;;;;23.66;54.49;101927.03;4946519;28;20031;-65
2023/08/16 05:13:55;;;;;;;4.90;2.33;;;;;;;23.65;54.37;101927.16;4947412;29;20043;-65
2023/08/16 05:16:21;;;;;;;3.83;2.42;;;;;;;23.66;54.69;101934.19;4947774;28;20039;-65
2023/08/16 05:18:46;;;;;;;5.47;2.60;;;;;;;23.65;54.49;101935.97;4946924;29;20106;-64
2023/08/16 05:21:11;;;;;;;3.58;2.03;;;;;;;23.66;54.29;101944.81;4944630;29;20050;-66
2023/08/16 05:23:37;;;;;;;3.90;2.10;;;;;;;23.65;54.58;101949.28;4947426;29;20047;-63
2023/08/16 05:26:02;;;;;;;5.25;2.50;;;;;;;23.67;54.13;101949.16;4946463;29;20039;-65
2023/08/16 05:28:27;;;;;;;5.03;2.60;;;;;;;23.67;53.95;101957.13;4946950;29;20028;-65
2023/08/16 05:30:53;;;;;;;4.60;1.98;;;;;;;23.68;54.64;101956.19;4946798;28;20270;-64
2023/08/16 05:33:18;;;;;;;6.18;2.72;;;;;;;23.68;54.44;101953.50;4947250;29;20036;-67
2023/08/16 05:35:44;;;;;;;4.57;2.28;;;;;;;23.68;54.41;101954.34;4947669;28;20392;-66
2023/08/16 05:38:09;;;;;;;5.15;2.30;;;;;;;23.68;54.32;101956.19;4947000;28;20144;-65
2023/08/16 05:40:34;;;;;;;4.32;2.40;;;;;;;23.69;54.62;101956.03;4945581;29;20066;-65
2023/08/16 05:43:00;;;;;;;5.03;2.25;;;;;;;23.69;54.70;101956.03;4945157;29;20720;-65
2023/08/16 05:45:27;;;;;;;4.82;2.20;;;;;;;23.68;54.77;101954.34;4945532;29;20897;-65
2023/08/16 05:47:55;;;;;;;5.00;2.20;;;;;;;23.68;54.57;101961.50;4946123;28;20139;-66
2023/08/16 05:50:21;;;;;;;4.60;2.30;;;;;;;23.68;54.43;101965.00;4944537;29;20456;-66
2023/08/16 05:52:46;;;;;;;4.65;2.40;;;;;;;23.68;54.81;101966.81;4945797;29;20074;-67
2023/08/16 05:55:12;;;;;;;4.90;2.10;;;;;;;23.67;54.75;101968.66;4946510;28;20582;-66
2023/08/16 05:57:37;;;;;;;3.80;2.10;;;;;;;23.66;55.00;101972.28;4945666;29;20043;-66
2023/08/16 06:00:03;;;;;;;3.97;2.30;;;;;;;23.67;54.79;101983.75;4944761;28;20501;-65
2023/08/16 06:02:28;;;;;;;5.20;2.10;;;;;;;23.64;55.00;101986.69;4944754;28;20049;-65
2023/08/16 06:04:54;;;;;;;4.53;2.00;;;;;;;23.64;55.00;101986.69;4945894;28;20055;-65
2023/08/16 06:07:20;;;;;;;4.07;2.20;;;;;;;23.65;55.08;101977.72;4944534;28;21425;-66
2023/08/16 06:09:46;;;;;;;5.05;2.30;;;;;;;23.65;54.87;101972.41;4946214;28;20066;-66
2023/08/16 06:12:12;;;;;;;5.00;2.13;;;;;;;23.66;54.91;101968.78;4945574;28;20057;-65
2023/08/16 06:14:38;;;;;;;5.43;2.10;;;;;;;23.67;55.39;101975.75;4946076;29;20038;-66
2023/08/16 06:17:03;;;;;;;6.25;2.60;;;;;;;23.66;54.94;101966.13;4945490;28;20429;-66
2023/08/16 06:19:29;;;;;;;4.75;2.08;;;;;;;23.67;55.03;101968.66;4949615;28;20031;-66
2023/08/16 06:21:54;;;;;;;5.47;2.33;;;;;;;23.69;55.08;101973.84;4949801;28;20063;-64
2023/08/16 06:24:19;;;;;;;5.30;2.10;;;;;;;23.66;55.05;101966.94;4948424;28;20082;-64
2023/08/16 06:26:45;;;;;;;4.60;2.13;;;;;;;23.68;54.98;101969.47;4949292;28;20746;-65
2023/08/16 06:29:10;;;;;;;4.72;2.10;;;;;;;23.69;55.05;101969.34;4948919;29;20477;-65
2023/08/16 06:31:35;;;;;;;4.10;2.13;;;;;;;23.68;54.99;101966.81;4948751;28;20320;-65
2023/08/16 06:34:01;;;;;;;4.13;1.90;;;;;;;23.68;55.50;101966.81;4949278;29;20035;-65
2023/08/16 06:36:27;;;;;;;4.47;2.05;;;;;;;23.68;55.32;101970.31;4949231;28;20031;-63
2023/08/16 06:38:53;;;;;;;5.22;2.58;;;;;;;23.69;54.88;101968.50;4948909;28;20483;-64
2023/08/16 06:41:19;;;;;;;3.88;2.03;;;;;;;23.69;54.91;101972.00;4950096;28;20058;-65
2023/08/16 06:43:45;;;;;;;6.47;1.95;;;;;;;23.70;55.03;101967.50;4948271;28;20047;-67
2023/08/16 06:46:10;;;;;;;5.50;2.00;;;;;;;23.71;55.02;101966.56;4948793;28;20051;-65
2023/08/16 06:48:37;;;;;;;4.05;2.00;;;;;;;23.79;55.29;101969.38;4949068;28;20031;-65
2023/08/16 06:51:04;;;;;;;5.55;2.20;;;;;;;23.85;54.84;101966.22;4948708;29;20044;-67
2023/08/16 06:53:32;;;;;;;5.88;2.05;;;;;;;23.82;55.02;101971.78;4946449;29;20035;-68
2023/08/16 06:55:58;;;;;;;4.10;2.00;;;;;;;23.86;54.83;101980.34;4944673;28;20043;-66
2023/08/16 06:58:23;;;;;;;5.20;2.25;;;;;;;23.89;54.49;101983.59;4946075;29;20086;-64
2023/08/16 07:00:49;;;;;;;4.53;1.98;;;;;;;23.93;54.92;101988.66;4947884;28;20109;-64
2023/08/16 07:03:15;;;;;;;3.55;1.90;;;;;;;23.90;54.88;101990.59;4947666;28;20392;-67
2023/08/16 07:05:41;;;;;;;3.72;1.90;;;;;;;23.87;54.51;101993.53;4946630;29;20090;-66
2023/08/16 07:08:07;;;;;;;4.97;1.80;;;;;;;23.88;54.91;101991.72;4944038;28;20433;-64
2023/08/16 07:10:32;;;;;;;6.45;2.00;;;;;;;23.89;54.71;101980.09;4947050;28;20113;-66
2023/08/16 07:12:57;;;;;;;4.03;2.00;;;;;;;23.93;54.10;101978.00;4945903;28;20471;-64
2023/08/16 07:15:23;;;;;;;4.38;1.85;;;;;;;23.95;54.35;101978.72;4946212;29;20035;-66
2023/08/16 07:17:48;;;;;;;3.78;1.88;;;;;;;23.98;54.11;101981.09;4947763;28;20043;-64
2023/08/16 07:20:13;;;;;;;6.03;2.00;;;;;;;23.98;54.47;101979.28;4946882;28;20126;-66
2023/08/16 07:22:39;;;;;;;4.10;1.90;;;;;;;24.02;53.94;101990.47;4947823;29;20067;-66
2023/08/16 07:25:06;;;;;;;5.65;2.00;;;;;;;24.04;54.15;101993.88;4946619;28;20035;-63
2023/08/16 07:27:32;;;;;;;4.85;1.98;;;;;;;24.05;54.04;101995.53;4946319;28;20046;-66
2023/08/16 07:29:57;;;;;;;4.22;1.60;;;;;;;24.05;54.19;101999.06;4945407;29;20031;-68
2023/08/16 07:32:23;;;;;;;3.55;1.85;;;;;;;24.04;53.96;101997.38;4946644;28;20045;-64
2023/08/16 07:34:49;;;;;;;4.70;1.65;;;;;;;24.05;54.08;101998.19;4946063;28;20448;-63
2023/08/16 07:37:14;;;;;;;3.55;1.75;;;;;;;24.07;53.81;102001.59;4947110;28;20110;-63
2023/08/16 07:39:40;;;;;;;4.78;1.75;;;;;;;24.07;53.72;101999.75;4947144;28;20050;-64
2023/08/16 07:42:06;;;;;;;3.90;1.60;;;;;;;24.09;54.03;102003.13;4946510;28;20046;-65
2023/08/16 07:44:33;;;;;;;5.65;1.90;;;;;;;24.13;53.98;101997.53;4946686;28;20458;-67
2023/08/16 07:47:00;;;;;;;3.85;1.90;;;;;;;24.16;53.80;101994.59;4947081;29;20055;-67
2023/08/16 07:49:25;;;;;;;3.67;1.73;;;;;;;24.16;53.55;102000.75;4946611;28;20385;-66
2023/08/16 07:51:51;;;;;;;4.50;1.67;;;;;;;24.15;54.19;102009.72;4945577;29;20042;-66
2023/08/16 07:54:16;;;;;;;3.58;1.70;;;;;;;24.14;54.16;102001.88;4947907;28;20388;-65
2023/08/16 07:56:41;;;;;;;3.25;1.63;;;;;;;24.15;54.08;102006.22;4946942;29;20047;-65
2023/08/16 07:59:07;;;;;;;3.00;1.48;;;;;;;24.15;53.83;102007.06;4946267;29;20044;-67
2023/08/16 08:01:32;;;;;;;3.63;1.65;;;;;;;24.17;53.91;102006.94;4947012;29;20432;-66
2023/08/16 08:03:59;;;;;;;2.87;1.50;;;;;;;24.18;53.77;102009.47;4945970;28;20483;-69
2023/08/16 08:06:24;;;;;;;4.30;1.60;;;;;;;24.24;53.94;102021.38;4946650;29;20277;-66
2023/08/16 08:08:49;;;;;;;3.67;1.40;;;;;;;24.21;53.99;102018.97;4945682;29;20027;-65
2023/08/16 08:11:15;;;;;;;3.47;1.55;;;;;;;24.21;53.77;102022.50;4946558;28;20027;-64
2023/08/16 08:13:40;;;;;;;5.35;1.75;;;;;;;24.22;54.05;102023.34;4946945;29;20491;-65
2023/08/16 08:16:07;;;;;;;7.30;1.80;;;;;;;24.22;53.92;102024.16;4947022;28;20035;-64
2023/08/16 08:18:32;;;;;;;4.88;1.60;;;;;;;24.23;53.70;102023.22;4947225;29;20166;-65
2023/08/16 08:20:59;;;;;;;4.03;1.60;;;;;;;24.24;53.87;102024.91;4948183;29;20122;-67
2023/08/16 08:23:25;;;;;;;3.15;1.50;;;;;;;24.25;53.49;102023.06;4936675;28;20043;-65
2023/08/16 08:25:50;;;;;;;3.47;1.58;;;;;;;24.25;53.73;102015.91;4938128;28;20495;-68
2023/08/16 08:28:17;;;;;;;3.30;1.52;;;;;;;24.26;53.20;102020.25;4927858;28;20047;-64
2023/08/16 08:30:43;;;;;;;3.90;1.85;;;;;;;24.27;53.69;102024.63;4130160;28;10000875;-66
2023/08/16 08:33:08;;;;;;;3.45;1.60;;;;;;;24.28;53.93;102022.78;5006213;28;20116;-65
2023/08/16 08:35:34;;;;;;;4.63;1.70;;;;;;;24.28;53.47;102022.78;5002613;28;20168;-64
2023/08/16 08:37:59;;;;;;;3.17;1.70;;;;;;;24.27;53.49;102023.75;5005326;28;20026;-64
2023/08/16 08:40:30;;;;;;;4.50;1.70;;;;;;;24.29;53.91;102028.94;5003589;28;20112;-63
2023/08/16 08:42:58;;;;;;;5.93;1.80;;;;;;;24.29;53.57;102032.44;4973497;28;20054;-64
2023/08/16 08:45:25;;;;;;;5.60;1.75;;;;;;;24.31;53.81;102030.50;4996716;28;20058;-66
2023/08/16 08:47:51;;;;;;;4.38;1.60;;;;;;;24.30;53.61;102030.66;5004659;28;20100;-65
2023/08/16 08:50:17;;;;;;;7.10;2.03;;;;;;;24.29;53.44;102031.63;4994940;28;20104;-66
2023/08/16 08:52:43;;;;;;;3.88;1.50;;;;;;;24.30;53.92;102036.81;5004347;28;20483;-70
2023/08/16 08:55:08;;;;;;;5.15;1.60;;;;;;;24.32;53.55;102034.84;4994204;28;20387;-65
2023/08/16 08:57:35;;;;;;;3.55;1.80;;;;;;;24.35;53.82;102044.41;5004278;28;20030;-63
2023/08/16 09:00:03;;;;;;;3.38;1.50;;;;;;;24.33;53.90;102039.19;5004648;28;20037;-65
2023/08/16 09:02:30;;;;;;;4.20;1.75;;;;;;;24.38;53.65;102044.13;5004405;28;20168;-65
2023/08/16 09:05:00;;;;;;;3.05;1.40;;;;;;;24.37;53.43;102042.44;5005357;28;20474;-67
2023/08/16 09:07:26;;;;;;;4.60;1.58;;;;;;;24.39;53.73;102040.50;5003572;28;20248;-65
2023/08/16 09:09:53;;;;;;;4.38;1.55;;;;;;;24.40;53.49;102036.81;5002567;28;20157;-62
2023/08/16 09:12:19;;;;;;;3.90;1.73;;;;;;;24.35;53.44;102041.72;5003846;28;20046;-64
2023/08/16 09:14:44;;;;;;;4.45;1.40;;;;;;;24.32;54.13;102048.16;5004889;28;20605;-64
2023/08/16 09:17:10;;;;;;;3.03;1.33;;;;;;;24.32;54.03;102058.81;5004322;28;20083;-64
2023/08/16 09:19:43;;;;;;;3.95;1.60;;;;;;;24.29;54.20;102042.28;5004819;28;20113;-67
2023/08/16 09:22:08;;;;;;;3.88;1.80;;;;;;;24.31;53.77;102042.97;5004518;28;20044;-67
2023/08/16 09:24:33;;;;;;;4.03;1.25;;;;;;;24.26;53.73;102038.91;5004806;28;20034;-66
2023/08/16 09:27:00;;;;;;;3.73;1.47;;;;;;;24.29;53.75;102034.28;5005680;28;20034;-66
2023/08/16 09:29:25;;;;;;;3.55;1.65;;;;;;;24.27;54.18;102043.28;5005825;28;20267;-66
2023/08/16 09:31:51;;;;;;;3.75;1.38;;;;;;;24.25;53.80;102037.22;5005516;28;20037;-66
2023/08/16 09:34:20;;;;;;;3.00;1.40;;;;;;;24.28;53.72;102041.44;5005537;28;20038;-65
2023/08/16 09:36:46;;;;;;;5.43;1.50;;;;;;;24.31;53.18;102029.66;5005358;28;20041;-65
2023/08/16 09:39:11;;;;;;;4.05;1.48;;;;;;;24.31;52.77;102038.50;5003164;28;20044;-67
2023/08/16 09:41:57;;;;;;;3.58;1.48;;;;;;;24.30;53.59;102036.81;5005270;28;20367;-68
2023/08/16 09:44:28;;;;;;;6.45;1.80;;;;;;;24.33;53.50;102036.53;5004729;28;20046;-66
2023/08/16 09:46:55;;;;;;;5.32;1.67;;;;;;;24.34;53.50;102037.38;5005693;28;20049;-67
2023/08/16 09:49:22;;;;;;;5.85;1.75;;;;;;;24.31;53.75;102038.50;5004515;28;20033;-66
2023/08/16 09:51:48;;;;;;;5.22;1.52;;;;;;;24.25;53.93;102028.41;5003731;28;20141;-65
2023/08/16 09:54:16;;;;;;;7.18;1.63;;;;;;;24.21;54.54;102030.50;5009694;28;20116;-65
2023/08/16 09:56:43;;;;;;;5.88;1.80;;;;;;;24.20;54.49;102030.63;5009209;28;20502;-67
2023/08/16 09:59:09;;;;;;;3.83;1.48;;;;;;;24.16;55.06;102032.69;5008752;28;20056;-66
2023/08/16 10:01:35;;;;;;;3.53;1.58;;;;;;;24.17;55.19;102039.72;5008785;28;20409;-65
2023/08/16 10:04:02;;;;;;;4.43;1.70;;;;;;;24.15;55.28;102030.19;5008636;28;20026;-67
2023/08/16 10:06:30;;;;;;;5.10;1.60;;;;;;;24.14;55.31;102029.34;5008647;28;20061;-66
2023/08/16 10:08:56;;;;;;;5.68;1.52;;;;;;;24.14;55.74;102025.84;5008981;28;20033;-65
2023/08/16 10:11:23;;;;;;;5.38;1.55;;;;;;;24.15;56.03;102030.19;5008545;28;20034;-66
2023/08/16 10:13:48;;;;;;;4.22;1.30;;;;;;;24.14;55.85;102026.69;5022614;28;20037;-68
2023/08/16 10:16:15;;;;;;;4.75;1.63;;;;;;;24.14;56.22;102025.84;5008291;28;20176;-67
2023/08/16 10:18:42;;;;;;;9.70;1.90;;;;;;;24.12;56.25;102025.97;5009215;28;20140;-66
2023/08/16 10:21:11;;;;;;;3.83;1.50;;;;;;;24.13;56.19;102035.63;5009188;28;20375;-64
2023/08/16 10:23:39;;;;;;;7.47;1.50;;;;;;;24.11;56.45;102032.28;5009206;28;20038;-68
2023/08/16 10:26:12;;;;;;;2.90;1.30;;;;;;;24.12;56.21;102031.31;5009267;28;20466;-66
2023/08/16 10:28:38;;;;;;;4.93;1.58;;;;;;;24.11;56.25;102031.44;5009364;28;20026;-64
2023/08/16 10:31:06;;;;;;;4.43;1.63;;;;;;;24.12;56.36;102035.81;5009092;28;20116;-65
2023/08/16 10:33:37;;;;;;;9.18;1.73;;;;;;;24.10;56.80;102030.63;5008712;28;20042;-65
2023/08/16 10:36:03;;;;;;;3.40;1.55;;;;;;;24.09;56.66;102029.75;5009133;28;20037;-64
2023/08/16 10:38:40;;;;;;;5.32;1.58;;;;;;;24.08;57.02;102019.22;5009061;28;20029;-67
2023/08/16 10:41:15;;;;;;;4.97;1.52;;;;;;;24.08;57.16;102021.91;5008848;28;20038;-66
2023/08/16 10:43:54;;;;;;;4.47;1.42;;;;;;;24.08;57.62;102019.22;5008504;28;20038;-65
2023/08/16 10:46:26;;;;;;;5.32;1.50;;;;;;;24.09;57.65;102019.09;5009165;28;20046;-65
2023/08/16 10:48:58;;;;;;;6.85;1.70;;;;;;;24.08;57.71;102024.56;5008469;28;20403;-67
2023/08/16 10:51:24;;;;;;;7.20;1.83;;;;;;;24.10;57.78;102014.63;5009220;28;20471;-64
2023/08/16 10:53:50;;;;;;;8.60;2.08;;;;;;;24.09;57.28;102015.59;5008651;28;20080;-68
2023/08/16 10:56:17;;;;;;;6.38;1.63;;;;;;;24.08;57.52;102014.78;5008503;28;20026;-68
2023/08/16 10:58:51;;;;;;;6.20;2.00;;;;;;;24.08;57.66;102017.44;5008797;28;20117;-65
2023/08/16 11:01:18;;;;;;;5.25;1.70;;;;;;;24.10;57.32;102022.63;5008678;28;20037;-63
2023/08/16 11:03:43;;;;;;;4.03;1.45;;;;;;;24.10;57.91;102017.28;5007739;28;20080;-65
2023/08/16 11:06:14;;;;;;;4.35;1.20;;;;;;;24.11;57.69;102010.97;5008379;28;20035;-66
2023/08/16 11:08:44;;;;;;;6.00;1.60;;;;;;;24.12;57.26;102018.00;5008776;28;20117;-66
2023/08/16 11:11:11;;;;;;;9.00;1.80;;;;;;;24.12;57.72;102020.66;5008265;28;20076;-65
2023/08/16 11:13:40;;;;;;;4.85;1.98;;;;;;;24.09;57.44;102021.75;5007454;28;20120;-65
2023/08/16 11:16:09;;;;;;;10.15;1.50;;;;;;;24.11;57.77;102023.47;5007415;28;20056;-67
2023/08/16 11:18:35;;;;;;;7.97;1.75;;;;;;;24.09;57.35;102015.59;5006967;28;20394;-65
2023/08/16 11:21:01;;;;;;;5.63;1.42;;;;;;;24.09;57.73;102018.25;5007086;28;20034;-66